Time;durP1;ratioP1;P1;durP2;ratioP2;P2;SDS_P1;SDS_P2;PMS_P1;PMS_P2;Temp;Humidity;BMP_temperature;BMP_pressure;BME280_temperature;BME280_humidity;BME280_pressure;Samples;Min_cycle;Max_cycle;Signal;HPM_P1;HPM_P2
2021/12/26 00:01:01;;;;;;;;;;;0.90;99.90;;;;;;5064718;28;19921;-71
2021/12/26 00:03:28;;;;;;;;;;;0.90;99.90;;;;;;5064999;28;19921;-73
2021/12/26 00:05:56;;;;;;;;;;;0.80;99.90;;;;;;5065040;28;19943;-70
2021/12/26 00:08:23;;;;;;;;;;;0.80;99.90;;;;;;5064687;28;19927;-71
2021/12/26 00:10:49;;;;;;;;;;;0.80;99.90;;;;;;5064684;28;19920;-70
2021/12/26 00:13:16;;;;;;;;;;;0.80;99.90;;;;;;5064666;28;20222;-70
2021/12/26 00:15:43;;;;;;;;;;;0.80;99.90;;;;;;5064241;28;19927;-71
2021/12/26 00:18:11;;;;;;;;;;;0.80;99.90;;;;;;5063573;28;19920;-71
2021/12/26 00:20:37;;;;;;;;;;;0.80;99.90;;;;;;5064634;28;20216;-70
2021/12/26 00:23:04;;;;;;;;;;;0.70;99.90;;;;;;5064462;28;19924;-71
2021/12/26 00:25:32;;;;;;;;;;;0.70;99.90;;;;;;5064169;28;20211;-73
2021/12/26 00:27:59;;;;;;;;;;;0.70;99.90;;;;;;5064239;28;20228;-70
2021/12/26 00:30:26;;;;;;;;;;;0.70;99.90;;;;;;5064745;28;20155;-71
2021/12/26 00:32:53;;;;;;;;;;;0.80;99.90;;;;;;5064469;28;20086;-70
2021/12/26 00:35:22;;;;;;;;;;;0.90;99.90;;;;;;5063898;28;20216;-71
2021/12/26 00:37:49;;;;;;;;;;;0.90;99.90;;;;;;5064471;28;19927;-70
2021/12/26 00:40:18;;;;;;;;;;;0.90;99.90;;;;;;5064125;28;19929;-71
2021/12/26 00:42:45;;;;;;;;;;;0.90;99.90;;;;;;5063791;28;19991;-70
2021/12/26 00:45:12;;;;;;;;;;;0.90;99.90;;;;;;5063887;28;20113;-71
2021/12/26 00:47:39;;;;;;;;;;;0.90;99.90;;;;;;5064166;28;19924;-70
2021/12/26 00:50:08;;;;;;;;;;;0.90;99.90;;;;;;5064075;28;19984;-70
2021/12/26 00:52:36;;;;;;;;;;;0.80;99.90;;;;;;5063897;28;19927;-70
2021/12/26 00:55:03;;;;;;;;;;;0.70;99.90;;;;;;5063597;28;19921;-70
2021/12/26 00:57:30;;;;;;;;;;;0.80;99.90;;;;;;5063831;28;19932;-71
2021/12/26 00:59:56;;;;;;;;;;;0.80;99.90;;;;;;5063879;28;19921;-70
2021/12/26 01:02:24;;;;;;;;;;;0.80;99.90;;;;;;5063720;28;19920;-70
2021/12/26 01:04:51;;;;;;;;;;;0.80;99.90;;;;;;5063385;28;19929;-70
2021/12/26 01:07:28;;;;;;;;;;;0.70;99.90;;;;;;5063476;28;19983;-70
2021/12/26 01:09:56;;;;;;;;;;;0.70;99.90;;;;;;5063538;28;19951;-71
2021/12/26 01:12:23;;;;;;;;;;;0.70;99.90;;;;;;5063520;28;20287;-71
2021/12/26 01:14:56;;;;;;;;;;;0.70;99.90;;;;;;5063510;28;19928;-70
2021/12/26 01:17:25;;;;;;;;;;;0.70;99.90;;;;;;5063737;28;20124;-70
2021/12/26 01:19:53;;;;;;;;;;;0.70;99.90;;;;;;5063606;28;19983;-70
2021/12/26 01:22:21;;;;;;;;;;;0.70;99.90;;;;;;5063463;28;20139;-70
2021/12/26 01:24:55;;;;;;;;;;;0.70;99.90;;;;;;5063050;28;19920;-70
2021/12/26 01:27:23;;;;;;;;;;;0.70;99.90;;;;;;5063570;28;20154;-70
2021/12/26 01:29:50;;;;;;;;;;;0.80;99.90;;;;;;5063001;28;19921;-70
2021/12/26 01:32:17;;;;;;;;;;;0.70;99.90;;;;;;5063386;28;19920;-70
2021/12/26 01:34:44;;;;;;;;;;;0.80;99.90;;;;;;5063013;28;20176;-71
2021/12/26 01:37:10;;;;;;;;;;;0.70;99.90;;;;;;5063305;28;19920;-70
2021/12/26 01:39:39;;;;;;;;;;;0.80;99.90;;;;;;5062474;28;21739;-71
2021/12/26 01:42:08;;;;;;;;;;;0.80;99.90;;;;;;5063451;28;19927;-70
2021/12/26 01:44:37;;;;;;;;;;;0.80;99.90;;;;;;5062897;28;19970;-72
2021/12/26 01:47:04;;;;;;;;;;;0.70;99.90;;;;;;5063180;28;19927;-71
2021/12/26 01:49:31;;;;;;;;;;;0.70;99.90;;;;;;5062844;28;19936;-70
2021/12/26 01:51:59;;;;;;;;;;;0.70;99.90;;;;;;5083876;23;19921;-72
2021/12/26 01:54:29;;;;;;;;;;;0.70;99.90;;;;;;5083118;28;19987;-75
2021/12/26 01:56:56;;;;;;;;;;;0.70;99.90;;;;;;5083296;28;19948;-75
2021/12/26 01:59:22;;;;;;;;;;;0.70;99.90;;;;;;5083150;28;19921;-75
2021/12/26 02:01:50;;;;;;;;;;;0.70;99.90;;;;;;5083122;28;19921;-75
2021/12/26 02:04:17;;;;;;;;;;;0.80;99.90;;;;;;5082669;28;19927;-74
2021/12/26 02:06:44;;;;;;;;;;;0.70;99.90;;;;;;5082919;28;19940;-75
2021/12/26 02:09:12;;;;;;;;;;;0.70;99.90;;;;;;5083242;28;19943;-75
2021/12/26 02:11:39;;;;;;;;;;;0.70;99.90;;;;;;5083027;28;19928;-72
2021/12/26 02:14:06;;;;;;;;;;;0.70;99.90;;;;;;5082696;28;19921;-73
2021/12/26 02:16:34;;;;;;;;;;;0.70;99.90;;;;;;5082853;28;19934;-72
2021/12/26 02:19:03;;;;;;;;;;;0.80;99.90;;;;;;5083208;28;19987;-75
2021/12/26 02:21:47;;;;;;;;;;;0.80;99.90;;;;;;5083079;28;19920;-75
2021/12/26 02:24:19;;;;;;;;;;;0.80;99.90;;;;;;5082601;28;20183;-74
2021/12/26 02:29:30;;;;;;;;;;;0.90;99.90;;;;;;5083002;28;20239;-76
2021/12/26 02:31:57;;;;;;;;;;;0.80;99.90;;;;;;5082899;28;19927;-74
2021/12/26 02:34:23;;;;;;;;;;;0.80;99.90;;;;;;5082640;28;20204;-75
2021/12/26 02:36:51;;;;;;;;;;;0.80;99.90;;;;;;5082984;28;20114;-75
2021/12/26 02:39:18;;;;;;;;;;;0.70;99.90;;;;;;5082916;28;19963;-75
2021/12/26 02:41:45;;;;;;;;;;;0.70;99.90;;;;;;5085132;28;19966;-75
2021/12/26 02:44:11;;;;;;;;;;;0.80;99.90;;;;;;5086303;28;19921;-75
2021/12/26 02:46:40;;;;;;;;;;;0.80;99.90;;;;;;5086451;28;19928;-75
2021/12/26 02:49:07;;;;;;;;;;;0.90;99.90;;;;;;5086073;28;19921;-75
2021/12/26 02:51:33;;;;;;;;;;;0.90;99.90;;;;;;5086233;28;19924;-75
2021/12/26 02:54:01;;;;;;;;;;;0.90;99.90;;;;;;5085732;28;19920;-75
2021/12/26 02:56:29;;;;;;;;;;;0.90;99.90;;;;;;5086150;28;20146;-74
2021/12/26 02:58:56;;;;;;;;;;;0.90;99.90;;;;;;5086028;28;19927;-75
2021/12/26 03:01:24;;;;;;;;;;;0.90;99.90;;;;;;5085993;28;19924;-75
2021/12/26 03:03:50;;;;;;;;;;;0.90;99.90;;;;;;5085718;28;20123;-75
2021/12/26 03:06:23;;;;;;;;;;;0.90;99.90;;;;;;5086017;28;19921;-76
2021/12/26 03:08:51;;;;;;;;;;;0.90;99.90;;;;;;5086262;28;19927;-75
2021/12/26 03:11:20;;;;;;;;;;;0.90;99.90;;;;;;5086022;28;19921;-75
2021/12/26 03:13:46;;;;;;;;;;;0.90;99.90;;;;;;5085497;28;20233;-74
2021/12/26 03:16:13;;;;;;;;;;;0.90;99.90;;;;;;5085835;28;20123;-75
2021/12/26 03:18:40;;;;;;;;;;;0.90;99.90;;;;;;5085851;28;20026;-73
2021/12/26 03:21:06;;;;;;;;;;;0.90;99.90;;;;;;5085526;28;19920;-74
2021/12/26 03:23:33;;;;;;;;;;;1.00;99.90;;;;;;5085623;28;19927;-75
2021/12/26 03:26:01;;;;;;;;;;;1.00;99.90;;;;;;5085621;28;20126;-75
2021/12/26 03:28:29;;;;;;;;;;;1.00;99.90;;;;;;5085656;28;19921;-72
2021/12/26 03:30:56;;;;;;;;;;;1.10;99.90;;;;;;5085756;28;20230;-73
2021/12/26 03:33:23;;;;;;;;;;;1.10;99.90;;;;;;5085849;28;19987;-73
2021/12/26 03:35:50;;;;;;;;;;;1.10;99.90;;;;;;5085319;28;19927;-73
2021/12/26 03:38:17;;;;;;;;;;;1.10;99.90;;;;;;5085632;28;19926;-73
2021/12/26 03:40:44;;;;;;;;;;;1.10;99.90;;;;;;5085569;28;19924;-72
2021/12/26 03:43:11;;;;;;;;;;;1.00;99.90;;;;;;5085270;28;20115;-72
2021/12/26 03:45:39;;;;;;;;;;;1.00;99.90;;;;;;5084920;28;19920;-73
2021/12/26 03:48:06;;;;;;;;;;;1.00;99.90;;;;;;5085097;28;19921;-73
2021/12/26 03:50:34;;;;;;;;;;;1.00;99.90;;;;;;5085355;28;19924;-73
2021/12/26 03:53:02;;;;;;;;;;;1.00;99.90;;;;;;5084721;28;20250;-73
2021/12/26 03:55:29;;;;;;;;;;;1.00;99.90;;;;;;5084735;28;19927;-73
2021/12/26 03:57:55;;;;;;;;;;;1.00;99.90;;;;;;5085065;28;19920;-73
2021/12/26 04:00:23;;;;;;;;;;;0.90;99.90;;;;;;5085041;28;19927;-73
2021/12/26 04:02:51;;;;;;;;;;;1.00;99.90;;;;;;5084702;28;19935;-73
2021/12/26 04:05:18;;;;;;;;;;;1.00;99.90;;;;;;5084680;28;19927;-72
2021/12/26 04:07:45;;;;;;;;;;;1.00;99.90;;;;;;5084940;28;19925;-72
2021/12/26 04:10:13;;;;;;;;;;;1.00;99.90;;;;;;5084900;28;19920;-72
2021/12/26 04:12:44;;;;;;;;;;;1.00;99.90;;;;;;5084740;28;19926;-73
2021/12/26 04:15:12;;;;;;;;;;;1.00;99.90;;;;;;5084426;28;19920;-74
2021/12/26 04:17:39;;;;;;;;;;;0.90;99.90;;;;;;5084901;28;19921;-73
2021/12/26 04:20:08;;;;;;;;;;;0.90;99.90;;;;;;5084799;28;19920;-73
2021/12/26 04:22:35;;;;;;;;;;;1.00;99.90;;;;;;5084800;28;19929;-73
2021/12/26 04:25:02;;;;;;;;;;;1.00;99.90;;;;;;5084176;28;19924;-72
2021/12/26 04:27:28;;;;;;;;;;;1.00;99.90;;;;;;5084375;28;19921;-72
2021/12/26 04:29:55;;;;;;;;;;;1.00;99.90;;;;;;5084540;28;19928;-73
2021/12/26 04:32:22;;;;;;;;;;;1.00;99.90;;;;;;5084422;28;19927;-73
2021/12/26 04:34:49;;;;;;;;;;;1.00;99.90;;;;;;5084032;28;19927;-73
2021/12/26 04:37:17;;;;;;;;;;;1.00;99.90;;;;;;5084171;28;20215;-73
2021/12/26 04:39:43;;;;;;;;;;;1.10;99.90;;;;;;5084187;28;19920;-72
2021/12/26 04:42:10;;;;;;;;;;;1.00;99.90;;;;;;5084090;28;19920;-73
2021/12/26 04:44:37;;;;;;;;;;;1.00;99.90;;;;;;5083912;28;19924;-73
2021/12/26 04:47:04;;;;;;;;;;;1.00;99.90;;;;;;5084036;28;19920;-73
2021/12/26 04:49:31;;;;;;;;;;;1.00;99.90;;;;;;5083977;28;19928;-72
2021/12/26 04:51:57;;;;;;;;;;;1.10;99.90;;;;;;5083736;28;20111;-73
2021/12/26 04:54:25;;;;;;;;;;;1.00;99.90;;;;;;5083616;28;19992;-73
2021/12/26 04:56:52;;;;;;;;;;;1.00;99.90;;;;;;5083722;28;19920;-74
2021/12/26 04:59:18;;;;;;;;;;;1.00;99.90;;;;;;5083840;28;19927;-73
2021/12/26 05:01:45;;;;;;;;;;;1.10;99.90;;;;;;5083834;28;20139;-72
2021/12/26 05:04:12;;;;;;;;;;;1.10;99.90;;;;;;5082994;28;19925;-73
2021/12/26 05:06:38;;;;;;;;;;;1.10;99.90;;;;;;5083769;28;19920;-73
2021/12/26 05:09:05;;;;;;;;;;;1.20;99.90;;;;;;5083617;28;19924;-72
2021/12/26 05:11:36;;;;;;;;;;;1.20;99.90;;;;;;5083874;28;19928;-75
2021/12/26 05:14:03;;;;;;;;;;;1.30;99.90;;;;;;5083545;28;20212;-73
2021/12/26 05:16:29;;;;;;;;;;;1.30;99.90;;;;;;5083813;28;19920;-73
2021/12/26 05:18:56;;;;;;;;;;;1.30;99.90;;;;;;5083741;28;19921;-73
2021/12/26 05:21:23;;;;;;;;;;;1.20;99.90;;;;;;5083533;28;19927;-73
2021/12/26 05:23:49;;;;;;;;;;;1.20;99.90;;;;;;5083176;28;19928;-73
2021/12/26 05:26:16;;;;;;;;;;;1.30;99.90;;;;;;5083587;28;19951;-73
2021/12/26 05:28:44;;;;;;;;;;;1.20;99.90;;;;;;5083462;28;19921;-72
2021/12/26 05:31:10;;;;;;;;;;;1.20;99.90;;;;;;5083170;28;19921;-72
2021/12/26 05:33:37;;;;;;;;;;;1.20;99.90;;;;;;5083151;28;19927;-73
2021/12/26 05:36:04;;;;;;;;;;;1.10;99.90;;;;;;5083276;28;19924;-73
2021/12/26 05:38:31;;;;;;;;;;;1.10;99.90;;;;;;5083231;28;19921;-73
2021/12/26 05:40:57;;;;;;;;;;;1.10;99.90;;;;;;5083377;28;19921;-73
2021/12/26 05:43:24;;;;;;;;;;;1.10;99.90;;;;;;5083320;28;19927;-73
2021/12/26 05:45:52;;;;;;;;;;;1.10;99.90;;;;;;5083028;28;20146;-72
2021/12/26 05:48:18;;;;;;;;;;;1.10;99.90;;;;;;5083279;28;19950;-72
2021/12/26 05:50:45;;;;;;;;;;;1.10;99.90;;;;;;5082793;28;19921;-72
2021/12/26 05:53:11;;;;;;;;;;;1.20;99.90;;;;;;5082935;28;19920;-73
2021/12/26 05:55:38;;;;;;;;;;;1.20;99.90;;;;;;5082965;28;19927;-73
2021/12/26 05:58:05;;;;;;;;;;;1.20;99.90;;;;;;5083197;28;19926;-73
2021/12/26 06:00:31;;;;;;;;;;;1.20;99.90;;;;;;5083155;28;19921;-73
2021/12/26 06:02:59;;;;;;;;;;;1.20;99.90;;;;;;5083030;28;20147;-73
2021/12/26 06:05:26;;;;;;;;;;;1.20;99.90;;;;;;5082740;28;19927;-73
2021/12/26 06:07:52;;;;;;;;;;;1.20;99.90;;;;;;5082957;28;20143;-73
2021/12/26 06:10:19;;;;;;;;;;;1.20;99.90;;;;;;5083459;28;19921;-72
2021/12/26 06:12:46;;;;;;;;;;;1.20;99.90;;;;;;5083040;28;19924;-73
2021/12/26 06:15:13;;;;;;;;;;;1.20;99.90;;;;;;5084305;28;19927;-73
2021/12/26 06:17:39;;;;;;;;;;;1.20;99.90;;;;;;5086978;28;19983;-72
2021/12/26 06:20:13;;;;;;;;;;;1.20;99.90;;;;;;5087223;28;19927;-74
2021/12/26 06:22:40;;;;;;;;;;;1.30;99.90;;;;;;5086799;28;19991;-72
2021/12/26 06:25:07;;;;;;;;;;;1.30;99.90;;;;;;5086529;28;19925;-73
2021/12/26 06:27:34;;;;;;;;;;;1.30;99.90;;;;;;5086893;28;19920;-72
2021/12/26 06:30:01;;;;;;;;;;;1.30;99.90;;;;;;5086811;28;19960;-73
2021/12/26 06:32:27;;;;;;;;;;;1.30;99.90;;;;;;5086733;28;20123;-72
2021/12/26 06:34:54;;;;;;;;;;;1.30;99.90;;;;;;5086221;28;19921;-73
2021/12/26 06:37:22;;;;;;;;;;;1.30;99.90;;;;;;5086766;28;19925;-72
2021/12/26 06:39:48;;;;;;;;;;;1.40;99.90;;;;;;5086557;28;19921;-72
2021/12/26 06:42:15;;;;;;;;;;;1.30;99.90;;;;;;5086287;28;19921;-73
2021/12/26 06:44:41;;;;;;;;;;;1.30;99.90;;;;;;5086065;28;20230;-72
2021/12/26 06:47:08;;;;;;;;;;;1.30;99.90;;;;;;5086113;28;20136;-73
2021/12/26 06:49:34;;;;;;;;;;;1.30;99.90;;;;;;5085859;28;20087;-72
2021/12/26 06:52:01;;;;;;;;;;;1.30;99.90;;;;;;5086321;28;19942;-73
2021/12/26 06:54:29;;;;;;;;;;;1.30;99.90;;;;;;5086081;28;19921;-73
2021/12/26 06:56:56;;;;;;;;;;;1.30;99.90;;;;;;5086061;28;20230;-73
2021/12/26 06:59:22;;;;;;;;;;;1.30;99.90;;;;;;5086175;28;19920;-72
2021/12/26 07:01:49;;;;;;;;;;;1.30;99.90;;;;;;5086073;28;20324;-73
2021/12/26 07:04:15;;;;;;;;;;;1.30;99.90;;;;;;5085958;28;20115;-73
2021/12/26 07:06:42;;;;;;;;;;;1.30;99.90;;;;;;5086261;28;20112;-72
2021/12/26 07:09:08;;;;;;;;;;;1.30;99.90;;;;;;5086060;28;19920;-73
2021/12/26 07:11:36;;;;;;;;;;;1.30;99.90;;;;;;5086055;28;20231;-72
2021/12/26 07:14:03;;;;;;;;;;;1.30;99.90;;;;;;5085720;28;19920;-73
2021/12/26 07:16:30;;;;;;;;;;;1.30;99.90;;;;;;5085909;28;19980;-74
2021/12/26 07:18:56;;;;;;;;;;;1.30;99.90;;;;;;5085960;28;20208;-73
2021/12/26 07:21:23;;;;;;;;;;;1.40;99.90;;;;;;5086025;28;19921;-73
2021/12/26 07:23:49;;;;;;;;;;;1.40;99.90;;;;;;5085659;28;19921;-72
2021/12/26 07:26:16;;;;;;;;;;;1.40;99.90;;;;;;5085107;28;19927;-73
2021/12/26 07:28:44;;;;;;;;;;;1.50;99.90;;;;;;5085708;28;19926;-73
2021/12/26 07:31:10;;;;;;;;;;;1.50;99.90;;;;;;5085394;28;19926;-73
2021/12/26 07:33:37;;;;;;;;;;;1.50;99.90;;;;;;5085367;28;19921;-73
2021/12/26 07:36:04;;;;;;;;;;;1.50;99.90;;;;;;5085695;28;20182;-73
2021/12/26 07:38:31;;;;;;;;;;;1.40;99.90;;;;;;5085521;28;19920;-72
2021/12/26 07:40:57;;;;;;;;;;;1.40;99.90;;;;;;5085419;28;19927;-73
2021/12/26 07:43:24;;;;;;;;;;;1.40;99.90;;;;;;5085354;28;19921;-74
2021/12/26 07:45:52;;;;;;;;;;;1.50;99.90;;;;;;5085124;28;19925;-72
2021/12/26 07:48:19;;;;;;;;;;;1.50;99.90;;;;;;5085288;28;19927;-73
2021/12/26 07:50:45;;;;;;;;;;;1.50;99.90;;;;;;5085384;28;19927;-73
2021/12/26 07:53:12;;;;;;;;;;;1.50;99.90;;;;;;5085233;28;20222;-72
2021/12/26 07:55:39;;;;;;;;;;;1.50;99.90;;;;;;5084704;28;19965;-72
2021/12/26 07:58:06;;;;;;;;;;;1.50;99.90;;;;;;5084919;28;19920;-72
2021/12/26 08:00:33;;;;;;;;;;;1.50;99.90;;;;;;5085171;28;19936;-72
2021/12/26 08:03:01;;;;;;;;;;;1.50;99.90;;;;;;5084910;28;19958;-72
2021/12/26 08:05:27;;;;;;;;;;;1.50;99.90;;;;;;5084543;28;19920;-72
2021/12/26 08:07:54;;;;;;;;;;;1.50;99.90;;;;;;5084841;28;19920;-72
2021/12/26 08:10:20;;;;;;;;;;;1.50;99.90;;;;;;5084719;28;19927;-72
2021/12/26 08:12:47;;;;;;;;;;;1.50;99.90;;;;;;5084590;28;19934;-72
2021/12/26 08:15:14;;;;;;;;;;;1.50;99.90;;;;;;5084475;28;19920;-72
2021/12/26 08:17:40;;;;;;;;;;;1.50;99.90;;;;;;5084821;28;19927;-73
2021/12/26 08:20:09;;;;;;;;;;;1.50;99.90;;;;;;5084798;28;20101;-72
2021/12/26 08:22:36;;;;;;;;;;;1.60;99.90;;;;;;5084433;28;20212;-72
2021/12/26 08:25:02;;;;;;;;;;;1.60;99.90;;;;;;5084159;28;20200;-72
2021/12/26 08:27:29;;;;;;;;;;;1.60;99.90;;;;;;5084480;28;20258;-72
2021/12/26 08:29:56;;;;;;;;;;;1.60;99.90;;;;;;5084532;28;19943;-72
2021/12/26 08:32:22;;;;;;;;;;;1.60;99.90;;;;;;5084468;28;19921;-72
2021/12/26 08:34:49;;;;;;;;;;;1.60;99.90;;;;;;5084040;28;19927;-72
2021/12/26 08:37:17;;;;;;;;;;;1.60;99.90;;;;;;5084350;28;19920;-72
2021/12/26 08:39:44;;;;;;;;;;;1.60;99.90;;;;;;5083122;28;19983;-72
2021/12/26 08:42:12;;;;;;;;;;;1.60;99.90;;;;;;5084424;28;20208;-72
2021/12/26 08:44:39;;;;;;;;;;;1.60;99.90;;;;;;5084074;28;19920;-72
2021/12/26 08:47:06;;;;;;;;;;;1.60;99.90;;;;;;5083972;28;19920;-72
2021/12/26 08:49:33;;;;;;;;;;;1.60;99.90;;;;;;5084357;28;19920;-72
2021/12/26 08:51:59;;;;;;;;;;;1.60;99.90;;;;;;5084087;28;19954;-72
2021/12/26 08:54:29;;;;;;;;;;;1.60;99.90;;;;;;5083532;28;19920;-73
2021/12/26 08:56:56;;;;;;;;;;;1.60;99.90;;;;;;5084154;28;19927;-72
2021/12/26 08:59:24;;;;;;;;;;;1.60;99.90;;;;;;5083879;28;19926;-72
2021/12/26 09:01:50;;;;;;;;;;;1.70;99.90;;;;;;5083696;28;19920;-72
2021/12/26 09:04:17;;;;;;;;;;;1.70;99.90;;;;;;5084371;28;20215;-72
2021/12/26 09:06:44;;;;;;;;;;;1.70;99.90;;;;;;5083662;28;19920;-72
2021/12/26 09:09:11;;;;;;;;;;;1.70;99.90;;;;;;5084035;28;19920;-72
2021/12/26 09:11:39;;;;;;;;;;;1.60;99.90;;;;;;5083830;28;19921;-72
2021/12/26 09:14:05;;;;;;;;;;;1.70;99.90;;;;;;5083741;28;20226;-72
2021/12/26 09:16:33;;;;;;;;;;;1.70;99.90;;;;;;5083613;28;19921;-72
2021/12/26 09:19:00;;;;;;;;;;;1.80;99.90;;;;;;5083507;28;20203;-72
2021/12/26 09:21:27;;;;;;;;;;;1.80;99.90;;;;;;5083523;28;20208;-72
2021/12/26 09:23:54;;;;;;;;;;;1.80;99.90;;;;;;5083755;28;19927;-75
2021/12/26 09:26:21;;;;;;;;;;;1.80;99.90;;;;;;5083545;28;19921;-72
2021/12/26 09:28:49;;;;;;;;;;;1.90;99.90;;;;;;5083493;28;19920;-72
2021/12/26 09:31:15;;;;;;;;;;;1.90;99.90;;;;;;5083344;28;19927;-72
2021/12/26 09:33:42;;;;;;;;;;;1.90;99.90;;;;;;5083366;28;19921;-72
2021/12/26 09:36:08;;;;;;;;;;;1.80;99.90;;;;;;5083242;28;19927;-72
2021/12/26 09:38:35;;;;;;;;;;;1.80;99.90;;;;;;5083485;28;19924;-72
2021/12/26 09:41:02;;;;;;;;;;;1.80;99.90;;;;;;5083349;28;19924;-72
2021/12/26 09:43:28;;;;;;;;;;;1.80;99.90;;;;;;5083240;28;19921;-73
2021/12/26 09:45:56;;;;;;;;;;;1.90;99.90;;;;;;5083137;28;20200;-72
2021/12/26 09:48:23;;;;;;;;;;;1.80;99.90;;;;;;5083252;28;20130;-72
2021/12/26 09:50:49;;;;;;;;;;;1.80;99.90;;;;;;5083212;28;19936;-72
2021/12/26 09:53:16;;;;;;;;;;;1.90;99.90;;;;;;5082995;28;19921;-72
2021/12/26 09:55:42;;;;;;;;;;;1.90;99.90;;;;;;5083122;28;19920;-72
2021/12/26 09:58:09;;;;;;;;;;;2.00;99.90;;;;;;5084599;28;19927;-72
2021/12/26 10:00:37;;;;;;;;;;;2.00;99.90;;;;;;5083725;28;19928;-72
2021/12/26 10:03:16;;;;;;;;;;;2.00;99.90;;;;;;5083046;28;19927;-72
2021/12/26 10:05:55;;;;;;;;;;;2.10;99.90;;;;;;5083144;28;19921;-72
2021/12/26 10:08:22;;;;;;;;;;;2.00;99.90;;;;;;5083054;28;19920;-72
2021/12/26 10:11:03;;;;;;;;;;;2.10;99.90;;;;;;5083907;28;19927;-72
2021/12/26 10:13:40;;;;;;;;;;;2.10;99.90;;;;;;5084977;28;19927;-72
2021/12/26 10:16:07;;;;;;;;;;;2.10;99.90;;;;;;5083159;28;19921;-73
2021/12/26 10:18:39;;;;;;;;;;;2.20;99.90;;;;;;5083422;28;19927;-73
2021/12/26 10:21:20;;;;;;;;;;;2.20;99.90;;;;;;5083325;28;19920;-72
2021/12/26 10:23:47;;;;;;;;;;;2.20;99.90;;;;;;5082585;28;19920;-72
2021/12/26 10:26:18;;;;;;;;;;;2.20;99.90;;;;;;5083307;28;19932;-72
2021/12/26 10:29:03;;;;;;;;;;;2.30;99.90;;;;;;5082675;28;19924;-72
2021/12/26 10:31:29;;;;;;;;;;;2.30;99.90;;;;;;5082857;28;19920;-73
2021/12/26 10:33:57;;;;;;;;;;;2.30;99.90;;;;;;5082616;28;19920;-72
2021/12/26 10:36:24;;;;;;;;;;;2.40;99.90;;;;;;5082805;28;19943;-72
2021/12/26 10:39:05;;;;;;;;;;;2.40;99.90;;;;;;5082929;28;19926;-73
2021/12/26 10:41:32;;;;;;;;;;;2.40;99.90;;;;;;5082901;28;20220;-72
2021/12/26 10:43:59;;;;;;;;;;;2.40;99.90;;;;;;5083026;28;19942;-72
2021/12/26 10:46:25;;;;;;;;;;;2.40;99.90;;;;;;5083270;28;19984;-72
2021/12/26 10:48:53;;;;;;;;;;;2.50;99.90;;;;;;5082675;28;20236;-72
2021/12/26 10:51:34;;;;;;;;;;;2.50;99.90;;;;;;5082605;28;19932;-73
2021/12/26 10:54:15;;;;;;;;;;;2.60;99.90;;;;;;5082517;28;19920;-72
2021/12/26 10:56:42;;;;;;;;;;;2.50;99.90;;;;;;5079509;28;19921;-72
2021/12/26 10:59:18;;;;;;;;;;;2.60;99.90;;;;;;5082588;28;20123;-73
2021/12/26 11:01:44;;;;;;;;;;;2.60;99.90;;;;;;5083335;28;20115;-72
2021/12/26 11:04:11;;;;;;;;;;;2.60;99.90;;;;;;5085793;28;19920;-72
2021/12/26 11:06:53;;;;;;;;;;;2.60;99.90;;;;;;5085980;28;19963;-73
2021/12/26 11:09:21;;;;;;;;;;;2.60;99.90;;;;;;5085486;28;19921;-72
2021/12/26 11:11:58;;;;;;;;;;;2.60;99.90;;;;;;5085880;28;19924;-75
2021/12/26 11:14:25;;;;;;;;;;;2.60;99.90;;;;;;5086227;28;19952;-72
2021/12/26 11:16:51;;;;;;;;;;;2.60;99.90;;;;;;5086077;28;19990;-72
2021/12/26 11:19:33;;;;;;;;;;;2.60;99.90;;;;;;5086053;28;19920;-73
2021/12/26 11:21:59;;;;;;;;;;;2.60;99.90;;;;;;5086139;28;19927;-72
2021/12/26 11:24:27;;;;;;;;;;;2.60;99.90;;;;;;5085523;28;19927;-73
2021/12/26 11:26:54;;;;;;;;;;;2.70;99.90;;;;;;5085534;28;20223;-72
2021/12/26 11:29:20;;;;;;;;;;;2.70;99.90;;;;;;5085969;28;20123;-73
2021/12/26 11:31:50;;;;;;;;;;;2.70;99.90;;;;;;5085726;28;20100;-72
2021/12/26 11:34:18;;;;;;;;;;;2.70;99.90;;;;;;5085407;28;20115;-75
2021/12/26 11:36:46;;;;;;;;;;;2.70;99.90;;;;;;5085264;28;19925;-73
2021/12/26 11:39:12;;;;;;;;;;;2.70;99.90;;;;;;5085586;28;20123;-73
2021/12/26 11:41:42;;;;;;;;;;;2.80;99.90;;;;;;5085723;28;19920;-73
2021/12/26 11:44:20;;;;;;;;;;;2.80;99.90;;;;;;5085886;28;20123;-73
2021/12/26 11:46:58;;;;;;;;;;;2.80;99.90;;;;;;5085277;28;19928;-74
2021/12/26 11:49:44;;;;;;;;;;;2.90;99.90;;;;;;5085213;28;19920;-73
2021/12/26 11:52:26;;;;;;;;;;;3.00;99.90;;;;;;5085047;28;20093;-73
2021/12/26 11:54:58;;;;;;;;;;;3.00;99.90;;;;;;5084984;28;19920;-72
2021/12/26 11:57:43;;;;;;;;;;;3.00;99.90;;;;;;5085583;28;19920;-72
2021/12/26 12:00:12;;;;;;;;;;;3.00;99.90;;;;;;5086013;28;19924;-72
2021/12/26 12:02:42;;;;;;;;;;;3.00;99.90;;;;;;5085128;28;19921;-73
2021/12/26 12:05:12;;;;;;;;;;;3.00;99.90;;;;;;5084729;28;20212;-73
2021/12/26 12:07:44;;;;;;;;;;;3.00;99.90;;;;;;5084923;28;20226;-72
2021/12/26 12:10:25;;;;;;;;;;;3.00;99.90;;;;;;5084606;28;19920;-72
2021/12/26 12:12:52;;;;;;;;;;;3.10;99.90;;;;;;5084136;28;20172;-73
2021/12/26 12:15:40;;;;;;;;;;;3.10;99.90;;;;;;5084787;28;19926;-73
2021/12/26 12:18:08;;;;;;;;;;;3.10;99.90;;;;;;5084601;28;19980;-73
2021/12/26 12:20:35;;;;;;;;;;;3.10;99.90;;;;;;5084633;28;19928;-73
2021/12/26 12:23:16;;;;;;;;;;;3.20;99.90;;;;;;5084602;28;19928;-72
2021/12/26 12:25:49;;;;;;;;;;;3.10;99.90;;;;;;5084189;28;19921;-73
2021/12/26 12:28:16;;;;;;;;;;;3.20;99.90;;;;;;5084560;28;20135;-73
2021/12/26 12:30:45;;;;;;;;;;;3.20;99.90;;;;;;5084241;28;19942;-73
2021/12/26 12:33:13;;;;;;;;;;;3.10;99.90;;;;;;5084659;28;19920;-72
2021/12/26 12:35:50;;;;;;;;;;;3.10;99.90;;;;;;5084197;28;19965;-72
2021/12/26 12:38:23;;;;;;;;;;;3.20;99.90;;;;;;5084366;28;19927;-73
2021/12/26 12:40:50;;;;;;;;;;;3.10;99.90;;;;;;5084254;28;19924;-76
2021/12/26 12:43:18;;;;;;;;;;;3.20;99.90;;;;;;5084055;28;19920;-76
2021/12/26 12:46:01;;;;;;;;;;;3.20;99.90;;;;;;5084118;28;19920;-76
2021/12/26 12:48:30;;;;;;;;;;;3.20;99.90;;;;;;5082112;28;19920;-73
2021/12/26 12:50:59;;;;;;;;;;;3.20;99.90;;;;;;5084311;28;19987;-73
2021/12/26 12:53:39;;;;;;;;;;;3.20;99.90;;;;;;5083822;28;19921;-76
2021/12/26 12:56:06;;;;;;;;;;;3.20;99.90;;;;;;5083798;28;19921;-76
2021/12/26 12:58:36;;;;;;;;;;;3.20;99.90;;;;;;5083864;28;19928;-76
2021/12/26 13:01:03;;;;;;;;;;;3.20;99.90;;;;;;5084035;28;19973;-76
2021/12/26 13:03:34;;;;;;;;;;;3.20;99.90;;;;;;5083928;28;20114;-75
2021/12/26 13:06:06;;;;;;;;;;;3.30;99.90;;;;;;5083945;28;19921;-73
2021/12/26 13:08:33;;;;;;;;;;;3.30;99.90;;;;;;5083756;28;19920;-74
2021/12/26 13:11:01;;;;;;;;;;;3.30;99.90;;;;;;5083803;28;19987;-76
2021/12/26 13:13:28;;;;;;;;;;;3.30;99.90;;;;;;5083486;28;19921;-75
2021/12/26 13:15:56;;;;;;;;;;;3.30;99.90;;;;;;5083319;28;19983;-76
2021/12/26 13:18:23;;;;;;;;;;;3.40;99.90;;;;;;5083732;28;20111;-76
2021/12/26 13:20:53;;;;;;;;;;;3.30;99.90;;;;;;5084012;28;19920;-76
2021/12/26 13:23:20;;;;;;;;;;;3.40;99.90;;;;;;5084128;28;20115;-75
2021/12/26 13:25:48;;;;;;;;;;;3.40;99.90;;;;;;5083090;28;19920;-76
2021/12/26 13:28:20;;;;;;;;;;;3.30;99.90;;;;;;5083890;28;19925;-75
2021/12/26 13:30:50;;;;;;;;;;;3.30;99.90;;;;;;5083490;28;19921;-76
2021/12/26 13:33:18;;;;;;;;;;;3.30;99.90;;;;;;5083366;28;20153;-76
2021/12/26 13:35:44;;;;;;;;;;;3.30;99.90;;;;;;5082998;28;19943;-76
2021/12/26 13:38:12;;;;;;;;;;;3.30;99.90;;;;;;5083470;28;19921;-76
2021/12/26 13:40:40;;;;;;;;;;;3.30;99.90;;;;;;5083402;28;20153;-76
2021/12/26 13:43:06;;;;;;;;;;;3.40;99.90;;;;;;5083535;28;19932;-76
2021/12/26 13:45:34;;;;;;;;;;;3.30;99.90;;;;;;5083075;28;19928;-76
2021/12/26 13:48:01;;;;;;;;;;;3.30;99.90;;;;;;5083135;28;19927;-76
2021/12/26 13:50:29;;;;;;;;;;;3.30;99.90;;;;;;5083679;28;19963;-75
2021/12/26 13:53:00;;;;;;;;;;;3.30;99.90;;;;;;5083384;28;20242;-75
2021/12/26 13:55:32;;;;;;;;;;;3.40;99.90;;;;;;5082950;28;20311;-76
2021/12/26 13:57:59;;;;;;;;;;;3.40;99.90;;;;;;5083107;28;19921;-75
2021/12/26 14:00:25;;;;;;;;;;;3.30;99.90;;;;;;5083081;28;19927;-76
2021/12/26 14:02:52;;;;;;;;;;;3.40;99.90;;;;;;5083174;28;19936;-76
2021/12/26 14:05:20;;;;;;;;;;;3.30;99.90;;;;;;5082799;28;20101;-76
2021/12/26 14:07:52;;;;;;;;;;;3.40;99.90;;;;;;5083076;28;19924;-76
2021/12/26 14:10:20;;;;;;;;;;;3.40;99.90;;;;;;5083175;28;19927;-75
2021/12/26 14:12:49;;;;;;;;;;;3.40;99.90;;;;;;5082937;28;19925;-76
2021/12/26 14:15:24;;;;;;;;;;;3.40;99.90;;;;;;5082720;28;19927;-76
2021/12/26 14:17:54;;;;;;;;;;;3.30;99.90;;;;;;5083163;28;19927;-75
2021/12/26 14:20:21;;;;;;;;;;;3.30;99.90;;;;;;5083507;28;19958;-75
2021/12/26 14:22:47;;;;;;;;;;;3.40;99.90;;;;;;5083415;28;20218;-76
2021/12/26 14:25:14;;;;;;;;;;;3.40;99.90;;;;;;5082636;28;20215;-76
2021/12/26 14:27:42;;;;;;;;;;;3.40;99.90;;;;;;5082782;28;19927;-73
2021/12/26 14:30:10;;;;;;;;;;;3.40;99.90;;;;;;5083195;28;19920;-73
2021/12/26 14:32:37;;;;;;;;;;;3.40;99.90;;;;;;5082712;28;19927;-74
2021/12/26 14:35:03;;;;;;;;;;;3.40;99.90;;;;;;5082657;28;19920;-73
2021/12/26 14:37:30;;;;;;;;;;;3.30;99.90;;;;;;5084614;28;19920;-74
2021/12/26 14:40:08;;;;;;;;;;;3.30;99.90;;;;;;5086565;28;19920;-74